createdAt,value
2019-02-16T00:00:59.460Z,81.50
2019-02-16T00:04:04.598Z,81.10
2019-02-16T00:07:09.570Z,80.90
2019-02-16T00:10:14.629Z,80.60
2019-02-16T00:13:19.771Z,80.50
2019-02-16T00:16:24.956Z,80.40
2019-02-16T00:19:30.094Z,80.50
2019-02-16T00:22:35.173Z,80.60
2019-02-16T00:25:40.135Z,80.50
2019-02-16T00:28:45.268Z,80.50
2019-02-16T00:31:50.312Z,81.50
2019-02-16T00:34:55.371Z,80.70
2019-02-16T00:38:00.430Z,80.70
2019-02-16T00:41:07.849Z,80.70
2019-02-16T00:44:12.909Z,81.60
2019-02-16T00:47:18.192Z,80.90
2019-02-16T00:50:23.256Z,81.00
2019-02-16T00:53:28.311Z,81.20
2019-02-16T00:56:33.280Z,81.30
2019-02-16T00:59:38.409Z,81.20
2019-02-16T01:02:43.451Z,81.20
2019-02-16T01:05:48.584Z,81.30
2019-02-16T01:08:53.786Z,81.50
2019-02-16T01:11:58.761Z,81.60
2019-02-16T01:15:04.572Z,82.60
2019-02-16T01:18:09.558Z,81.90
2019-02-16T01:21:22.486Z,81.90
2019-02-16T01:24:21.314Z,81.70
2019-02-16T01:27:26.338Z,81.80
2019-02-16T01:30:31.385Z,82.00
2019-02-16T01:33:36.370Z,82.10
2019-02-16T01:36:41.389Z,82.30
2019-02-16T01:39:46.753Z,82.60
2019-02-16T01:42:51.774Z,82.80
2019-02-16T01:45:56.834Z,82.70
2019-02-16T01:49:01.803Z,83.40
2019-02-16T01:52:06.910Z,83.60
2019-02-16T01:55:11.963Z,83.90
2019-02-16T01:58:16.990Z,84.10
2019-02-16T02:01:21.952Z,84.20
2019-02-16T02:04:26.991Z,84.40
2019-02-16T02:07:31.926Z,84.60
2019-02-16T02:10:36.974Z,85.60
2019-02-16T02:13:41.956Z,85.10
2019-02-16T02:16:46.991Z,85.30
2019-02-16T02:19:51.973Z,85.40
2019-02-16T02:22:56.993Z,85.50
2019-02-16T02:26:01.956Z,85.40
2019-02-16T02:29:06.994Z,85.40
2019-02-16T02:32:11.948Z,85.40
2019-02-16T02:35:16.919Z,85.30
2019-02-16T02:38:21.958Z,85.30
2019-02-16T02:41:26.996Z,85.20
2019-02-16T02:44:32.039Z,85.90
2019-02-16T02:47:37.294Z,85.00
2019-02-16T02:50:42.411Z,84.90
2019-02-16T02:53:47.635Z,84.80
2019-02-16T02:56:52.771Z,84.90
2019-02-16T02:59:57.822Z,84.60
2019-02-16T03:03:02.782Z,84.60
2019-02-16T03:06:07.903Z,84.70
2019-02-16T03:09:12.948Z,84.80
2019-02-16T03:12:17.903Z,84.70
2019-02-16T03:15:22.901Z,84.60
2019-02-16T03:18:27.933Z,84.50
2019-02-16T03:21:32.977Z,84.50
2019-02-16T03:24:38.068Z,84.50
2019-02-16T03:28:22.826Z,84.60
2019-02-16T03:32:15.555Z,84.90
2019-02-16T03:36:15.075Z,85.00
2019-02-16T03:39:27.225Z,85.00
2019-02-16T03:42:32.349Z,85.10
2019-02-16T03:45:37.318Z,85.20
2019-02-16T03:48:42.263Z,85.20
2019-02-16T03:51:47.383Z,86.00
2019-02-16T03:54:52.420Z,85.40
2019-02-16T03:57:57.386Z,85.40
2019-02-16T04:01:02.430Z,85.50
2019-02-16T04:04:07.527Z,85.50
2019-02-16T04:07:12.496Z,85.40
2019-02-16T04:10:17.458Z,85.40
2019-02-16T04:13:22.524Z,85.50
2019-02-16T04:16:27.496Z,85.70
2019-02-16T04:19:32.518Z,85.70
2019-02-16T04:22:37.488Z,85.70
2019-02-16T04:25:42.455Z,85.70
2019-02-16T04:28:47.405Z,85.70
2019-02-16T04:31:52.504Z,86.00
2019-02-16T04:34:57.543Z,86.00
2019-02-16T04:38:02.582Z,86.00
2019-02-16T04:41:07.704Z,85.90
2019-02-16T04:44:12.759Z,86.00
2019-02-16T04:47:17.727Z,86.10
2019-02-16T04:50:22.774Z,86.10
2019-02-16T04:53:27.741Z,86.10
2019-02-16T04:56:32.835Z,85.80
2019-02-16T04:59:37.955Z,85.70
2019-02-16T05:02:43.012Z,85.80
2019-02-16T05:05:50.094Z,85.70
2019-02-16T05:08:55.063Z,85.70
2019-02-16T05:12:00.103Z,85.70
2019-02-16T05:15:05.255Z,85.70
2019-02-16T05:18:10.304Z,85.60
2019-02-16T05:21:15.325Z,85.60
2019-02-16T05:24:20.290Z,85.70
2019-02-16T05:27:25.254Z,85.90
2019-02-16T05:30:30.227Z,85.80
2019-02-16T05:33:35.244Z,86.00
2019-02-16T05:36:40.369Z,86.10
2019-02-16T05:39:46.580Z,86.30
2019-02-16T05:42:51.689Z,86.40
2019-02-16T05:45:56.804Z,86.50
2019-02-16T05:49:02.025Z,86.60
2019-02-16T05:52:06.989Z,86.70
2019-02-16T05:55:12.116Z,86.70
2019-02-16T05:58:17.071Z,86.70
2019-02-16T06:01:22.113Z,86.70
2019-02-16T06:04:27.488Z,86.60
2019-02-16T06:07:32.452Z,86.60
2019-02-16T06:10:37.413Z,86.80
2019-02-16T06:13:42.398Z,86.80
2019-02-16T06:16:47.575Z,86.90
2019-02-16T06:19:52.560Z,86.80
2019-02-16T06:23:03.860Z,86.80
2019-02-16T06:26:04.281Z,86.80
2019-02-16T06:29:09.303Z,86.70
2019-02-16T06:32:14.270Z,86.60
2019-02-16T06:35:38.439Z,86.70
2019-02-16T06:38:43.528Z,86.60
2019-02-16T06:41:48.598Z,86.60
2019-02-16T06:44:53.556Z,86.50
2019-02-16T06:47:58.609Z,86.60
2019-02-16T06:51:03.561Z,86.60
2019-02-16T06:54:08.526Z,86.50
2019-02-16T06:57:19.341Z,86.50
2019-02-16T07:00:26.983Z,86.50
2019-02-16T07:03:32.035Z,86.60
2019-02-16T07:06:37.060Z,86.70
2019-02-16T07:09:42.112Z,86.70
2019-02-16T07:12:47.145Z,86.80
2019-02-16T07:16:25.804Z,86.80
2019-02-16T07:19:44.864Z,86.70
2019-02-16T07:22:49.838Z,86.70
2019-02-16T07:25:54.964Z,86.60
2019-02-16T07:28:59.915Z,86.90
2019-02-16T07:32:05.064Z,86.90
2019-02-16T07:35:10.175Z,86.70
2019-02-16T07:38:15.229Z,86.70
2019-02-16T07:41:20.202Z,86.70
2019-02-16T07:44:37.291Z,86.60
2019-02-16T07:47:57.316Z,86.70
2019-02-16T07:51:21.418Z,86.70
2019-02-16T07:54:51.596Z,86.80
2019-02-16T07:58:02.310Z,86.80
2019-02-16T08:01:15.827Z,86.80
2019-02-16T08:04:36.415Z,87.00
2019-02-16T08:08:03.259Z,87.00
2019-02-16T08:11:36.450Z,86.90
2019-02-16T08:15:03.584Z,86.90
2019-02-16T08:18:23.181Z,86.90
2019-02-16T08:21:43.236Z,86.80
2019-02-16T08:25:16.500Z,86.90
2019-02-16T08:28:29.596Z,86.90
2019-02-16T08:31:56.587Z,87.00
2019-02-16T08:35:26.470Z,87.20
2019-02-16T08:38:40.685Z,87.10
2019-02-16T08:42:04.805Z,87.00
2019-02-16T08:45:31.671Z,86.80
2019-02-16T08:48:44.669Z,86.80
2019-02-16T08:51:56.583Z,86.60
2019-02-16T08:55:09.191Z,86.40
2019-02-16T08:58:31.808Z,86.40
2019-02-16T09:01:54.326Z,86.10
2019-02-16T09:05:12.107Z,86.00
2019-02-16T09:08:54.223Z,85.70
2019-02-16T09:12:08.024Z,85.30
2019-02-16T09:15:23.514Z,84.90
2019-02-16T09:18:33.648Z,84.40
2019-02-16T09:21:57.757Z,84.00
2019-02-16T09:25:20.227Z,83.50
2019-02-16T09:28:42.575Z,83.10
2019-02-16T09:32:06.607Z,82.50
2019-02-16T09:35:33.781Z,81.90
2019-02-16T09:39:12.862Z,81.50
2019-02-16T09:42:42.743Z,81.00
2019-02-16T09:46:09.796Z,80.40
2019-02-16T09:49:26.638Z,80.00
2019-02-16T09:52:56.936Z,79.50
2019-02-16T09:56:21.048Z,78.90
2019-02-16T09:59:32.879Z,78.60
2019-02-16T10:02:51.885Z,78.00
2019-02-16T10:06:14.592Z,77.40
2019-02-16T10:09:47.757Z,76.70
2019-02-16T10:13:10.545Z,76.10
2019-02-16T10:16:34.071Z,75.30
2019-02-16T10:19:45.495Z,74.70
2019-02-16T10:23:18.529Z,74.80
2019-02-16T10:26:40.191Z,73.10
2019-02-16T10:29:59.075Z,72.30
2019-02-16T10:33:28.570Z,71.50
2019-02-16T10:36:52.705Z,70.30
2019-02-16T10:40:11.664Z,69.50
2019-02-16T10:43:31.469Z,68.60
2019-02-16T10:46:55.643Z,68.00
2019-02-16T10:50:18.437Z,67.10
2019-02-16T10:53:40.827Z,66.10
2019-02-16T10:56:56.627Z,65.50
2019-02-16T11:00:23.123Z,65.10
2019-02-16T11:03:53.241Z,64.40
2019-02-16T11:07:04.111Z,63.80
2019-02-16T11:10:26.580Z,63.10
2019-02-16T11:13:49.123Z,62.70
2019-02-16T11:17:11.788Z,62.00
2019-02-16T11:20:47.785Z,61.50
2019-02-16T11:24:16.833Z,60.90
2019-02-16T11:27:43.759Z,59.40
2019-02-16T11:31:14.553Z,59.20
2019-02-16T11:34:38.735Z,58.90
2019-02-16T11:37:58.814Z,58.40
2019-02-16T11:41:18.818Z,57.90
2019-02-16T11:44:28.084Z,57.70
2019-02-16T11:47:53.045Z,57.50
2019-02-16T11:51:08.339Z,57.10
2019-02-16T11:54:26.777Z,56.70
2019-02-16T11:57:49.768Z,56.20
2019-02-16T12:01:12.239Z,55.90
2019-02-16T12:04:26.252Z,55.70
2019-02-16T12:07:36.550Z,55.60
2019-02-16T12:11:00.666Z,55.20
2019-02-16T12:14:36.591Z,54.50
2019-02-16T12:17:56.698Z,54.50
2019-02-16T12:21:35.820Z,54.30
2019-02-16T12:25:06.456Z,54.10
2019-02-16T12:28:36.376Z,53.80
2019-02-16T12:32:00.498Z,53.30
2019-02-16T12:35:23.114Z,53.00
2019-02-16T12:38:33.657Z,52.70
2019-02-16T12:41:56.446Z,52.50
2019-02-16T12:45:32.540Z,52.10
2019-02-16T12:48:44.473Z,52.40
2019-02-16T12:52:23.774Z,51.50
2019-02-16T12:55:47.868Z,51.40
2019-02-16T12:59:13.759Z,51.10
2019-02-16T13:02:40.676Z,51.00
2019-02-16T13:05:59.987Z,51.00
2019-02-16T13:09:26.511Z,51.10
2019-02-16T13:12:56.770Z,51.20
2019-02-16T13:16:13.597Z,51.50
2019-02-16T13:19:27.255Z,51.00
2019-02-16T13:22:46.566Z,51.10
2019-02-16T13:26:14.949Z,51.10
2019-02-16T13:29:36.215Z,51.20
2019-02-16T13:33:08.309Z,51.40
2019-02-16T13:36:44.772Z,51.50
2019-02-16T13:40:11.811Z,51.50
2019-02-16T13:43:23.811Z,51.70
2019-02-16T13:46:34.375Z,51.80
2019-02-16T13:49:46.685Z,51.90
2019-02-16T13:53:09.440Z,52.10
2019-02-16T13:56:24.621Z,52.20
2019-02-16T13:59:57.612Z,52.20
2019-02-16T14:03:15.476Z,53.10
2019-02-16T14:06:30.808Z,52.60
2019-02-16T14:09:46.806Z,52.60
2019-02-16T14:12:58.052Z,52.80
2019-02-16T14:16:25.040Z,52.80
2019-02-16T14:19:30.006Z,52.90
2019-02-16T14:22:35.799Z,53.10
2019-02-16T14:25:50.352Z,53.10
2019-02-16T14:28:55.319Z,53.10
2019-02-16T14:32:00.349Z,53.20
2019-02-16T14:35:05.868Z,53.20
2019-02-16T14:38:42.139Z,53.10
2019-02-16T14:41:48.263Z,53.20
2019-02-16T14:44:53.207Z,53.40
2019-02-16T14:47:58.252Z,53.50
2019-02-16T14:51:03.247Z,53.50
2019-02-16T14:54:08.226Z,53.50
2019-02-16T14:57:13.276Z,53.50
2019-02-16T15:00:20.221Z,53.50
2019-02-16T15:03:25.136Z,53.60
2019-02-16T15:06:30.172Z,53.40
2019-02-16T15:09:35.220Z,53.40
2019-02-16T15:12:40.287Z,53.30
2019-02-16T15:15:45.351Z,53.20
2019-02-16T15:18:50.475Z,53.30
2019-02-16T15:21:55.628Z,53.30
2019-02-16T15:25:00.605Z,53.40
2019-02-16T15:28:05.723Z,53.40
2019-02-16T15:31:10.685Z,53.50
2019-02-16T15:34:15.716Z,53.40
2019-02-16T15:37:20.847Z,53.40
2019-02-16T15:40:25.890Z,53.40
2019-02-16T15:43:30.839Z,53.40
2019-02-16T15:46:35.963Z,53.30
2019-02-16T15:49:41.194Z,53.40
2019-02-16T15:52:46.342Z,53.40
2019-02-16T15:55:51.380Z,53.50
2019-02-16T15:58:56.517Z,53.50
2019-02-16T16:02:01.499Z,53.60
2019-02-16T16:05:06.658Z,53.80
2019-02-16T16:08:40.044Z,54.00
2019-02-16T16:12:06.951Z,54.20
2019-02-16T16:15:44.717Z,54.90
2019-02-16T16:19:17.898Z,54.50
2019-02-16T16:22:38.826Z,54.70
2019-02-16T16:25:52.362Z,54.70
2019-02-16T16:29:16.558Z,54.90
2019-02-16T16:32:43.365Z,55.10
2019-02-16T16:36:03.881Z,55.30
2019-02-16T16:39:26.455Z,55.60
2019-02-16T16:42:46.917Z,55.90
2019-02-16T16:46:29.891Z,56.20
2019-02-16T16:49:54.083Z,56.40
2019-02-16T16:53:16.332Z,56.70
2019-02-16T16:56:29.217Z,56.90
2019-02-16T16:59:56.832Z,57.30
2019-02-16T17:03:21.024Z,57.80
2019-02-16T17:06:57.018Z,58.40
2019-02-16T17:10:33.007Z,58.90
2019-02-16T17:13:56.689Z,59.50
2019-02-16T17:17:08.328Z,59.90
2019-02-16T17:20:37.785Z,60.60
2019-02-16T17:24:00.279Z,61.30
2019-02-16T17:27:17.360Z,61.70
2019-02-16T17:30:36.852Z,62.10
2019-02-16T17:33:50.793Z,63.90
2019-02-16T17:37:13.260Z,64.20
2019-02-16T17:40:46.319Z,64.50
2019-02-16T17:44:09.030Z,64.80
2019-02-16T17:47:31.644Z,65.10
2019-02-16T17:50:45.697Z,65.50
2019-02-16T17:54:09.943Z,66.00
2019-02-16T17:57:22.689Z,66.50
2019-02-16T18:00:42.208Z,66.80
2019-02-16T18:04:04.764Z,67.10
2019-02-16T18:07:19.272Z,67.80
2019-02-16T18:10:49.368Z,68.30
2019-02-16T18:14:10.731Z,68.60
2019-02-16T18:17:46.714Z,68.90
2019-02-16T18:21:16.897Z,69.50
2019-02-16T18:24:39.744Z,69.80
2019-02-16T18:28:11.638Z,70.20
2019-02-16T18:31:34.462Z,70.70
2019-02-16T18:34:58.583Z,70.90
2019-02-16T18:38:21.097Z,71.30
2019-02-16T18:42:00.063Z,71.80
2019-02-16T18:45:20.899Z,72.10
2019-02-16T18:48:41.828Z,72.50
2019-02-16T18:52:09.075Z,73.50
2019-02-16T18:55:32.884Z,73.00
2019-02-16T18:59:00.054Z,73.40
2019-02-16T19:02:33.087Z,74.00
2019-02-16T19:05:48.265Z,74.50
2019-02-16T19:09:15.508Z,74.80
2019-02-16T19:12:42.431Z,75.20
2019-02-16T19:16:06.211Z,75.70
2019-02-16T19:19:28.937Z,76.10
2019-02-16T19:22:40.504Z,76.50
2019-02-16T19:26:04.560Z,76.90
2019-02-16T19:29:22.704Z,77.20
2019-02-16T19:32:37.150Z,77.50
2019-02-16T19:36:04.422Z,77.90
2019-02-16T19:39:31.333Z,78.20
2019-02-16T19:43:01.513Z,78.70
2019-02-16T19:46:31.679Z,79.00
2019-02-16T19:49:47.124Z,79.40
2019-02-16T19:52:59.987Z,79.70
2019-02-16T19:56:24.186Z,80.10
2019-02-16T19:59:48.267Z,80.30
2019-02-16T20:03:21.317Z,80.70
2019-02-16T20:06:43.791Z,81.00
2019-02-16T20:10:04.238Z,81.20
2019-02-16T20:13:28.095Z,81.50
2019-02-16T20:16:42.059Z,81.80
2019-02-16T20:20:16.164Z,82.10
2019-02-16T20:23:38.980Z,82.40
2019-02-16T20:26:52.289Z,82.50
2019-02-16T20:30:16.408Z,82.50
2019-02-16T20:33:46.602Z,82.60
2019-02-16T20:37:16.791Z,82.70
2019-02-16T20:40:43.691Z,82.90
2019-02-16T20:43:58.975Z,83.00
2019-02-16T20:47:28.919Z,83.20
2019-02-16T20:50:42.535Z,83.30
2019-02-16T20:54:05.367Z,83.50
2019-02-16T20:57:31.905Z,83.50
2019-02-16T21:00:44.369Z,83.70
2019-02-16T21:04:11.355Z,84.50
2019-02-16T21:07:36.677Z,84.00
2019-02-16T21:10:51.667Z,84.30
2019-02-16T21:14:18.640Z,84.40
2019-02-16T21:17:45.600Z,84.60
2019-02-16T21:21:27.908Z,84.70
2019-02-16T21:24:42.383Z,85.00
2019-02-16T21:28:12.439Z,85.20
2019-02-16T21:31:31.704Z,85.40
2019-02-16T21:35:01.795Z,85.50
2019-02-16T21:38:40.862Z,85.60
2019-02-16T21:42:03.398Z,85.80
2019-02-16T21:45:15.017Z,86.10
2019-02-16T21:48:48.277Z,86.20
2019-02-16T21:52:04.135Z,86.50
2019-02-16T21:55:17.684Z,86.50
2019-02-16T21:58:37.715Z,86.70
2019-02-16T22:02:07.679Z,87.00
2019-02-16T22:05:40.703Z,87.00
2019-02-16T22:09:13.654Z,87.10
2019-02-16T22:12:33.364Z,87.40
2019-02-16T22:15:38.499Z,87.50
2019-02-16T22:18:43.532Z,87.60
2019-02-16T22:21:48.593Z,87.80
2019-02-16T22:24:53.689Z,88.00
2019-02-16T22:27:58.801Z,88.00
2019-02-16T22:31:03.771Z,88.00
2019-02-16T22:34:08.743Z,88.00
2019-02-16T22:37:13.880Z,88.10
2019-02-16T22:40:18.919Z,88.10
2019-02-16T22:43:24.042Z,88.10
2019-02-16T22:46:29.156Z,88.20
2019-02-16T22:49:34.194Z,88.20
2019-02-16T22:52:39.298Z,88.40
2019-02-16T22:55:44.295Z,88.50
2019-02-16T22:58:49.404Z,88.50
2019-02-16T23:01:54.635Z,89.30
2019-02-16T23:04:59.583Z,88.60
2019-02-16T23:08:04.918Z,88.70
2019-02-16T23:11:09.962Z,88.70
2019-02-16T23:14:14.964Z,88.90
2019-02-16T23:17:20.028Z,89.00
2019-02-16T23:20:25.134Z,89.90
2019-02-16T23:23:30.187Z,89.20
2019-02-16T23:26:35.163Z,89.30
2019-02-16T23:29:40.215Z,89.40
2019-02-16T23:32:45.251Z,89.50
2019-02-16T23:35:50.235Z,89.60
2019-02-16T23:38:55.359Z,89.70
2019-02-16T23:42:00.467Z,89.90
2019-02-16T23:45:06.136Z,90.00
2019-02-16T23:48:11.265Z,90.00
2019-02-16T23:51:16.319Z,90.10
2019-02-16T23:54:21.301Z,90.10
2019-02-16T23:57:26.340Z,90.10
